sensor_id;sensor_type;location;lat;lon;timestamp;pressure;altitude;pressure_sealevel;temperature;humidity
46690;BME280;32423;45.398;10.874;2024-01-25T00:02:01;101680.50;;;4.50;65.26
46690;BME280;32423;45.398;10.874;2024-01-25T00:04:55;101677.28;;;4.74;64.49
46690;BME280;32423;45.398;10.874;2024-01-25T00:07:53;101687.66;;;4.61;64.58
46690;BME280;32423;45.398;10.874;2024-01-25T00:10:45;101681.50;;;4.65;65.22
46690;BME280;32423;45.398;10.874;2024-01-25T00:13:40;101683.88;;;4.40;65.44
46690;BME280;32423;45.398;10.874;2024-01-25T00:16:35;101670.16;;;4.63;65.37
46690;BME280;32423;45.398;10.874;2024-01-25T00:19:29;101662.72;;;4.49;65.67
46690;BME280;32423;45.398;10.874;2024-01-25T00:22:21;101662.84;;;4.37;65.99
46690;BME280;32423;45.398;10.874;2024-01-25T00:25:16;101665.34;;;4.44;65.92
46690;BME280;32423;45.398;10.874;2024-01-25T00:28:10;101656.44;;;4.65;65.30
46690;BME280;32423;45.398;10.874;2024-01-25T00:31:05;101662.16;;;4.47;65.50
46690;BME280;32423;45.398;10.874;2024-01-25T00:33:59;101661.47;;;4.56;65.53
46690;BME280;32423;45.398;10.874;2024-01-25T00:36:52;101673.41;;;4.44;66.00
46690;BME280;32423;45.398;10.874;2024-01-25T00:39:47;101670.38;;;4.35;65.79
46690;BME280;32423;45.398;10.874;2024-01-25T00:42:48;101679.50;;;4.56;65.40
46690;BME280;32423;45.398;10.874;2024-01-25T00:45:43;101666.53;;;4.53;65.19
46690;BME280;32423;45.398;10.874;2024-01-25T00:48:37;101678.94;;;4.54;64.67
46690;BME280;32423;45.398;10.874;2024-01-25T00:51:32;101672.91;;;4.68;65.35
46690;BME280;32423;45.398;10.874;2024-01-25T00:54:26;101674.59;;;4.53;64.96
46690;BME280;32423;45.398;10.874;2024-01-25T00:57:21;101663.84;;;4.53;65.37
46690;BME280;32423;45.398;10.874;2024-01-25T01:00:16;101668.72;;;4.56;65.00
46690;BME280;32423;45.398;10.874;2024-01-25T01:03:08;101666.69;;;4.68;64.39
46690;BME280;32423;45.398;10.874;2024-01-25T01:06:02;101671.72;;;4.38;65.58
46690;BME280;32423;45.398;10.874;2024-01-25T01:08:57;101674.94;;;4.56;64.70
46690;BME280;32423;45.398;10.874;2024-01-25T01:11:49;101675.88;;;4.67;64.90
46690;BME280;32423;45.398;10.874;2024-01-25T01:14:43;101676.03;;;4.82;64.59
46690;BME280;32423;45.398;10.874;2024-01-25T01:17:38;101678.44;;;4.57;65.71
46690;BME280;32423;45.398;10.874;2024-01-25T01:20:32;101676.63;;;4.41;66.43
46690;BME280;32423;45.398;10.874;2024-01-25T01:23:27;101671.91;;;4.74;64.74
46690;BME280;32423;45.398;10.874;2024-01-25T01:26:19;101671.19;;;4.36;66.46
46690;BME280;32423;45.398;10.874;2024-01-25T01:29:14;101673.53;;;4.32;66.37
46690;BME280;32423;45.398;10.874;2024-01-25T01:32:09;101667.66;;;4.35;66.48
46690;BME280;32423;45.398;10.874;2024-01-25T01:35:03;101669.31;;;4.36;65.90
46690;BME280;32423;45.398;10.874;2024-01-25T01:37:55;101658.16;;;4.49;66.18
46690;BME280;32423;45.398;10.874;2024-01-25T01:40:50;101657.91;;;4.51;65.72
46690;BME280;32423;45.398;10.874;2024-01-25T01:43:42;101661.72;;;4.55;65.48
46690;BME280;32423;45.398;10.874;2024-01-25T01:46:40;101659.25;;;4.53;65.96
46690;BME280;32423;45.398;10.874;2024-01-25T01:49:33;101660.31;;;4.52;65.02
46690;BME280;32423;45.398;10.874;2024-01-25T01:52:27;101666.41;;;4.43;66.13
46690;BME280;32423;45.398;10.874;2024-01-25T01:55:20;101642.94;;;4.38;66.36
46690;BME280;32423;45.398;10.874;2024-01-25T01:58:15;101647.31;;;4.22;67.11
46690;BME280;32423;45.398;10.874;2024-01-25T02:01:10;101643.00;;;4.21;66.89
46690;BME280;32423;45.398;10.874;2024-01-25T02:04:08;101630.97;;;4.51;66.06
46690;BME280;32423;45.398;10.874;2024-01-25T02:07:02;101639.06;;;4.29;66.28
46690;BME280;32423;45.398;10.874;2024-01-25T02:09:57;101646.88;;;4.30;66.73
46690;BME280;32423;45.398;10.874;2024-01-25T02:12:51;101646.06;;;4.52;66.13
46690;BME280;32423;45.398;10.874;2024-01-25T02:15:46;101643.91;;;4.54;65.71
46690;BME280;32423;45.398;10.874;2024-01-25T02:18:41;101644.63;;;4.22;66.62
46690;BME280;32423;45.398;10.874;2024-01-25T02:21:36;101643.88;;;4.05;67.08
46690;BME280;32423;45.398;10.874;2024-01-25T02:24:30;101643.53;;;4.02;67.45
46690;BME280;32423;45.398;10.874;2024-01-25T02:27:25;101640.78;;;4.18;66.88
46690;BME280;32423;45.398;10.874;2024-01-25T02:30:19;101639.47;;;3.99;66.91
46690;BME280;32423;45.398;10.874;2024-01-25T02:33:14;101626.59;;;4.23;65.83
46690;BME280;32423;45.398;10.874;2024-01-25T02:36:09;101626.72;;;4.33;65.12
46690;BME280;32423;45.398;10.874;2024-01-25T02:39:01;101634.81;;;4.11;65.81
46690;BME280;32423;45.398;10.874;2024-01-25T02:41:56;101644.53;;;4.17;65.38
46690;BME280;32423;45.398;10.874;2024-01-25T02:44:50;101633.09;;;4.05;65.77
46690;BME280;32423;45.398;10.874;2024-01-25T02:47:45;101638.88;;;4.36;64.75
46690;BME280;32423;45.398;10.874;2024-01-25T02:50:39;101647.63;;;4.04;65.19
46690;BME280;32423;45.398;10.874;2024-01-25T02:53:34;101632.66;;;4.35;64.51
46690;BME280;32423;45.398;10.874;2024-01-25T02:56:29;101635.88;;;4.10;64.95
46690;BME280;32423;45.398;10.874;2024-01-25T02:59:26;101627.66;;;4.00;65.28
46690;BME280;32423;45.398;10.874;2024-01-25T03:02:26;101628.00;;;3.87;65.49
46690;BME280;32423;45.398;10.874;2024-01-25T03:05:21;101619.72;;;3.72;65.53
46690;BME280;32423;45.398;10.874;2024-01-25T03:08:13;101628.97;;;3.81;65.02
46690;BME280;32423;45.398;10.874;2024-01-25T03:11:07;101625.25;;;3.82;64.87
46690;BME280;32423;45.398;10.874;2024-01-25T03:14:07;101634.22;;;3.71;65.40
46690;BME280;32423;45.398;10.874;2024-01-25T03:17:02;101613.84;;;3.75;65.18
46690;BME280;32423;45.398;10.874;2024-01-25T03:19:57;101613.31;;;3.95;64.41
46690;BME280;32423;45.398;10.874;2024-01-25T03:22:51;101623.66;;;3.86;64.44
46690;BME280;32423;45.398;10.874;2024-01-25T03:25:46;101625.88;;;3.89;64.78
46690;BME280;32423;45.398;10.874;2024-01-25T03:28:41;101625.59;;;3.69;64.96
46690;BME280;32423;45.398;10.874;2024-01-25T03:31:35;101627.97;;;3.65;65.08
46690;BME280;32423;45.398;10.874;2024-01-25T03:34:30;101632.19;;;3.78;64.95
46690;BME280;32423;45.398;10.874;2024-01-25T03:37:25;101622.69;;;3.92;63.99
46690;BME280;32423;45.398;10.874;2024-01-25T03:40:19;101628.91;;;3.76;64.80
46690;BME280;32423;45.398;10.874;2024-01-25T03:43:14;101623.94;;;3.84;64.43
46690;BME280;32423;45.398;10.874;2024-01-25T03:46:09;101623.66;;;3.86;64.39
46690;BME280;32423;45.398;10.874;2024-01-25T03:49:03;101619.09;;;3.86;64.28
46690;BME280;32423;45.398;10.874;2024-01-25T03:51:58;101612.19;;;3.91;64.01
46690;BME280;32423;45.398;10.874;2024-01-25T03:54:52;101609.31;;;3.97;63.66
46690;BME280;32423;45.398;10.874;2024-01-25T03:57:44;101600.47;;;3.80;63.79
46690;BME280;32423;45.398;10.874;2024-01-25T04:00:39;101609.94;;;3.66;64.94
46690;BME280;32423;45.398;10.874;2024-01-25T04:03:31;101613.78;;;3.70;64.87
46690;BME280;32423;45.398;10.874;2024-01-25T04:06:26;101602.25;;;3.91;64.65
46690;BME280;32423;45.398;10.874;2024-01-25T04:09:21;101598.41;;;3.87;64.71
46690;BME280;32423;45.398;10.874;2024-01-25T04:12:13;101594.09;;;3.86;64.87
46690;BME280;32423;45.398;10.874;2024-01-25T04:15:08;101599.78;;;3.90;64.41
46690;BME280;32423;45.398;10.874;2024-01-25T04:18:02;101605.63;;;4.03;64.55
46690;BME280;32423;45.398;10.874;2024-01-25T04:20:57;101604.50;;;3.99;64.30
46690;BME280;32423;45.398;10.874;2024-01-25T04:23:51;101603.34;;;3.73;65.23
46690;BME280;32423;45.398;10.874;2024-01-25T04:26:43;101593.16;;;3.97;64.83
46690;BME280;32423;45.398;10.874;2024-01-25T04:29:39;101596.25;;;3.67;65.65
46690;BME280;32423;45.398;10.874;2024-01-25T04:32:34;101597.84;;;3.85;64.92
46690;BME280;32423;45.398;10.874;2024-01-25T04:35:29;101591.09;;;3.82;65.65
46690;BME280;32423;45.398;10.874;2024-01-25T04:38:23;101588.78;;;4.13;64.59
46690;BME280;32423;45.398;10.874;2024-01-25T04:41:18;101590.53;;;4.24;64.28
46690;BME280;32423;45.398;10.874;2024-01-25T04:44:12;101595.22;;;3.90;65.11
46690;BME280;32423;45.398;10.874;2024-01-25T04:47:07;101589.44;;;3.60;66.08
46690;BME280;32423;45.398;10.874;2024-01-25T04:50:02;101595.19;;;3.68;66.11
46690;BME280;32423;45.398;10.874;2024-01-25T04:52:56;101591.50;;;3.91;65.37
46690;BME280;32423;45.398;10.874;2024-01-25T04:55:54;101601.63;;;4.06;65.65
46690;BME280;32423;45.398;10.874;2024-01-25T04:58:49;101605.72;;;3.70;66.21
46690;BME280;32423;45.398;10.874;2024-01-25T05:01:44;101608.09;;;3.88;66.46
46690;BME280;32423;45.398;10.874;2024-01-25T05:04:38;101611.31;;;3.85;66.62
46690;BME280;32423;45.398;10.874;2024-01-25T05:07:33;101616.13;;;3.66;66.67
46690;BME280;32423;45.398;10.874;2024-01-25T05:10:25;101613.22;;;3.68;67.25
46690;BME280;32423;45.398;10.874;2024-01-25T05:13:19;101612.31;;;4.01;65.96
46690;BME280;32423;45.398;10.874;2024-01-25T05:16:14;101612.97;;;3.69;66.50
46690;BME280;32423;45.398;10.874;2024-01-25T05:19:09;101613.34;;;3.78;66.35
46690;BME280;32423;45.398;10.874;2024-01-25T05:22:04;101610.88;;;3.93;66.21
46690;BME280;32423;45.398;10.874;2024-01-25T05:24:56;101608.75;;;3.95;65.83
46690;BME280;32423;45.398;10.874;2024-01-25T05:27:50;101615.16;;;3.56;66.55
46690;BME280;32423;45.398;10.874;2024-01-25T05:30:45;101621.13;;;3.74;67.32
46690;BME280;32423;45.398;10.874;2024-01-25T05:33:39;101624.03;;;3.73;67.35
46690;BME280;32423;45.398;10.874;2024-01-25T05:36:34;101621.06;;;3.53;67.47
46690;BME280;32423;45.398;10.874;2024-01-25T05:39:29;101623.97;;;3.68;67.93
46690;BME280;32423;45.398;10.874;2024-01-25T05:42:23;101625.00;;;3.83;66.63
46690;BME280;32423;45.398;10.874;2024-01-25T05:45:16;101629.66;;;3.71;67.87
46690;BME280;32423;45.398;10.874;2024-01-25T05:48:08;101634.78;;;3.73;67.01
46690;BME280;32423;45.398;10.874;2024-01-25T05:51:03;101616.34;;;3.60;67.14
46690;BME280;32423;45.398;10.874;2024-01-25T05:53:58;101636.75;;;3.77;66.71
46690;BME280;32423;45.398;10.874;2024-01-25T05:56:53;101640.94;;;3.52;67.87
46690;BME280;32423;45.398;10.874;2024-01-25T05:59:52;101637.53;;;3.39;68.63
46690;BME280;32423;45.398;10.874;2024-01-25T06:02:47;101638.75;;;3.49;67.59
46690;BME280;32423;45.398;10.874;2024-01-25T06:05:39;101633.34;;;3.65;66.58
46690;BME280;32423;45.398;10.874;2024-01-25T06:08:33;101630.69;;;3.49;66.48
46690;BME280;32423;45.398;10.874;2024-01-25T06:11:28;101638.16;;;3.47;66.31
46690;BME280;32423;45.398;10.874;2024-01-25T06:14:23;101645.16;;;3.48;66.44
46690;BME280;32423;45.398;10.874;2024-01-25T06:17:17;101652.56;;;3.74;65.50
46690;BME280;32423;45.398;10.874;2024-01-25T06:20:12;101640.41;;;3.71;65.26
46690;BME280;32423;45.398;10.874;2024-01-25T06:23:07;101634.00;;;3.56;65.44
46690;BME280;32423;45.398;10.874;2024-01-25T06:26:01;101629.69;;;3.21;66.72
46690;BME280;32423;45.398;10.874;2024-01-25T06:28:56;101649.56;;;3.54;65.42
46690;BME280;32423;45.398;10.874;2024-01-25T06:31:53;101648.91;;;3.80;65.04
46690;BME280;32423;45.398;10.874;2024-01-25T06:34:48;101648.16;;;3.68;64.48
46690;BME280;32423;45.398;10.874;2024-01-25T06:37:43;101632.69;;;3.75;64.64
46690;BME280;32423;45.398;10.874;2024-01-25T06:40:37;101652.19;;;3.49;65.07
46690;BME280;32423;45.398;10.874;2024-01-25T06:43:37;101659.66;;;3.63;64.53
46690;BME280;32423;45.398;10.874;2024-01-25T06:46:31;101665.44;;;3.72;64.31
46690;BME280;32423;45.398;10.874;2024-01-25T06:49:26;101666.84;;;3.24;66.00
46690;BME280;32423;45.398;10.874;2024-01-25T06:52:18;101663.06;;;3.25;66.41
46690;BME280;32423;45.398;10.874;2024-01-25T06:55:10;101666.75;;;3.19;66.32
46690;BME280;32423;45.398;10.874;2024-01-25T06:58:05;101659.78;;;3.35;65.74
46690;BME280;32423;45.398;10.874;2024-01-25T07:01:00;101666.59;;;3.42;65.30
46690;BME280;32423;45.398;10.874;2024-01-25T07:03:56;101667.09;;;3.39;65.42
46690;BME280;32423;45.398;10.874;2024-01-25T07:06:51;101682.97;;;3.24;65.76
46690;BME280;32423;45.398;10.874;2024-01-25T07:09:45;101675.97;;;3.40;65.30
46690;BME280;32423;45.398;10.874;2024-01-25T07:12:40;101667.25;;;3.50;64.97
46690;BME280;32423;45.398;10.874;2024-01-25T07:15:29;101680.53;;;3.56;65.01
46690;BME280;32423;45.398;10.874;2024-01-25T07:18:21;101672.22;;;3.74;64.44
46690;BME280;32423;45.398;10.874;2024-01-25T07:21:16;101668.94;;;3.56;65.85
46690;BME280;32423;45.398;10.874;2024-01-25T07:24:11;101679.06;;;3.49;65.92
46690;BME280;32423;45.398;10.874;2024-01-25T07:27:05;101672.72;;;3.55;65.86
46690;BME280;32423;45.398;10.874;2024-01-25T07:30:00;101684.09;;;3.28;66.56
46690;BME280;32423;45.398;10.874;2024-01-25T07:32:52;101672.78;;;3.43;66.60
46690;BME280;32423;45.398;10.874;2024-01-25T07:35:46;101684.69;;;3.64;65.88
46690;BME280;32423;45.398;10.874;2024-01-25T07:38:41;101687.28;;;3.59;66.59
46690;BME280;32423;45.398;10.874;2024-01-25T07:41:35;101686.88;;;3.67;66.24
46690;BME280;32423;45.398;10.874;2024-01-25T07:44:30;101697.72;;;3.72;66.48
46690;BME280;32423;45.398;10.874;2024-01-25T07:47:24;101700.97;;;3.74;66.60
46690;BME280;32423;45.398;10.874;2024-01-25T07:50:19;101690.16;;;3.85;66.23
46690;BME280;32423;45.398;10.874;2024-01-25T07:53:12;101695.91;;;3.94;66.02
46690;BME280;32423;45.398;10.874;2024-01-25T07:56:08;101702.34;;;3.93;66.25
46690;BME280;32423;45.398;10.874;2024-01-25T07:59:03;101704.38;;;4.03;66.16
46690;BME280;32423;45.398;10.874;2024-01-25T08:01:58;101691.34;;;4.55;66.75
46690;BME280;32423;45.398;10.874;2024-01-25T08:04:50;101694.41;;;4.42;65.12
46690;BME280;32423;45.398;10.874;2024-01-25T08:07:42;101693.13;;;4.27;65.54
46690;BME280;32423;45.398;10.874;2024-01-25T08:10:36;101702.41;;;4.15;66.68
46690;BME280;32423;45.398;10.874;2024-01-25T08:13:31;101684.50;;;4.69;65.30
46690;BME280;32423;45.398;10.874;2024-01-25T08:16:23;101703.34;;;4.47;65.62
46690;BME280;32423;45.398;10.874;2024-01-25T08:19:17;101705.88;;;4.54;65.97
46690;BME280;32423;45.398;10.874;2024-01-25T08:22:14;101705.75;;;4.65;65.45
46690;BME280;32423;45.398;10.874;2024-01-25T08:25:09;101698.53;;;4.71;65.87
46690;BME280;32423;45.398;10.874;2024-01-25T08:28:04;101706.69;;;4.76;65.77
46690;BME280;32423;45.398;10.874;2024-01-25T08:30:58;101719.22;;;4.65;66.05
46690;BME280;32423;45.398;10.874;2024-01-25T08:33:53;101726.59;;;4.75;66.46
46690;BME280;32423;45.398;10.874;2024-01-25T08:36:48;101716.25;;;4.89;65.66
46690;BME280;32423;45.398;10.874;2024-01-25T08:39:40;101715.34;;;5.05;65.90
46690;BME280;32423;45.398;10.874;2024-01-25T08:42:34;101709.94;;;5.05;66.61
46690;BME280;32423;45.398;10.874;2024-01-25T08:45:29;101727.34;;;5.19;67.26
46690;BME280;32423;45.398;10.874;2024-01-25T08:48:23;101734.88;;;5.44;66.56
46690;BME280;32423;45.398;10.874;2024-01-25T08:51:18;101736.09;;;5.58;66.88
46690;BME280;32423;45.398;10.874;2024-01-25T08:54:13;101728.03;;;5.63;65.87
46690;BME280;32423;45.398;10.874;2024-01-25T08:57:07;101717.38;;;5.78;65.43
46690;BME280;32423;45.398;10.874;2024-01-25T09:00:02;101725.44;;;5.73;66.44
46690;BME280;32423;45.398;10.874;2024-01-25T09:02:57;101736.78;;;5.80;66.79
46690;BME280;32423;45.398;10.874;2024-01-25T09:05:49;101726.19;;;6.00;66.82
46690;BME280;32423;45.398;10.874;2024-01-25T09:08:44;101741.69;;;6.20;67.66
46690;BME280;32423;45.398;10.874;2024-01-25T09:11:38;101728.56;;;6.34;68.44
46690;BME280;32423;45.398;10.874;2024-01-25T09:14:33;101734.28;;;6.42;68.90
46690;BME280;32423;45.398;10.874;2024-01-25T09:17:28;101739.22;;;6.61;69.20
46690;BME280;32423;45.398;10.874;2024-01-25T09:20:22;101740.63;;;6.73;71.30
46690;BME280;32423;45.398;10.874;2024-01-25T09:23:17;101730.69;;;6.89;70.66
46690;BME280;32423;45.398;10.874;2024-01-25T09:26:10;101739.88;;;6.93;70.44
46690;BME280;32423;45.398;10.874;2024-01-25T09:28:59;101749.09;;;7.02;70.25
46690;BME280;32423;45.398;10.874;2024-01-25T09:31:51;101748.91;;;7.24;69.25
46690;BME280;32423;45.398;10.874;2024-01-25T09:34:43;101755.97;;;7.35;68.04
46690;BME280;32423;45.398;10.874;2024-01-25T09:37:38;101752.44;;;7.45;68.38
46690;BME280;32423;45.398;10.874;2024-01-25T09:40:33;101753.53;;;7.54;67.24
46690;BME280;32423;45.398;10.874;2024-01-25T09:43:25;101741.38;;;7.66;67.87
46690;BME280;32423;45.398;10.874;2024-01-25T09:46:17;101757.63;;;7.77;67.56
46690;BME280;32423;45.398;10.874;2024-01-25T09:49:10;101763.84;;;7.82;65.99
46690;BME280;32423;45.398;10.874;2024-01-25T09:52:05;101763.56;;;7.89;65.99
46690;BME280;32423;45.398;10.874;2024-01-25T09:55:00;101774.13;;;8.00;65.44
46690;BME280;32423;45.398;10.874;2024-01-25T09:57:55;101778.19;;;8.03;65.29
46690;BME280;32423;45.398;10.874;2024-01-25T10:00:53;101780.63;;;8.14;64.94
46690;BME280;32423;45.398;10.874;2024-01-25T10:03:53;101770.31;;;8.22;64.29
46690;BME280;32423;45.398;10.874;2024-01-25T10:06:47;101760.81;;;8.34;64.50
46690;BME280;32423;45.398;10.874;2024-01-25T10:09:45;101770.72;;;8.79;63.35
46690;BME280;32423;45.398;10.874;2024-01-25T10:12:40;101779.28;;;9.07;62.00
46690;BME280;32423;45.398;10.874;2024-01-25T10:15:35;101782.41;;;9.34;61.33
46690;BME280;32423;45.398;10.874;2024-01-25T10:18:29;101778.81;;;9.43;60.66
46690;BME280;32423;45.398;10.874;2024-01-25T10:21:24;101777.44;;;9.46;60.90
46690;BME280;32423;45.398;10.874;2024-01-25T10:24:19;101773.22;;;9.69;60.22
46690;BME280;32423;45.398;10.874;2024-01-25T10:27:13;101770.88;;;9.86;59.23
46690;BME280;32423;45.398;10.874;2024-01-25T10:30:14;101760.16;;;10.05;58.55
46690;BME280;32423;45.398;10.874;2024-01-25T10:33:06;101780.28;;;10.33;57.95
46690;BME280;32423;45.398;10.874;2024-01-25T10:35:59;101774.28;;;10.59;57.28
46690;BME280;32423;45.398;10.874;2024-01-25T10:38:56;101767.63;;;10.70;55.91
46690;BME280;32423;45.398;10.874;2024-01-25T10:41:49;101771.22;;;11.08;55.61
46690;BME280;32423;45.398;10.874;2024-01-25T10:44:42;101782.66;;;11.10;55.51
46690;BME280;32423;45.398;10.874;2024-01-25T10:47:35;101776.81;;;10.98;54.93
46690;BME280;32423;45.398;10.874;2024-01-25T10:50:29;101768.31;;;11.24;55.41
46690;BME280;32423;45.398;10.874;2024-01-25T10:53:24;101765.50;;;11.85;52.16
46690;BME280;32423;45.398;10.874;2024-01-25T10:56:18;101753.78;;;11.84;51.45
46690;BME280;32423;45.398;10.874;2024-01-25T10:59:08;101753.13;;;11.92;52.11
46690;BME280;32423;45.398;10.874;2024-01-25T11:02:05;101750.31;;;12.11;52.54
46690;BME280;32423;45.398;10.874;2024-01-25T11:05:01;101750.94;;;12.22;51.73
46690;BME280;32423;45.398;10.874;2024-01-25T11:07:55;101757.09;;;12.14;52.32
46690;BME280;32423;45.398;10.874;2024-01-25T11:10:51;101758.13;;;12.18;51.97
46690;BME280;32423;45.398;10.874;2024-01-25T11:13:46;101764.72;;;12.44;51.55
46690;BME280;32423;45.398;10.874;2024-01-25T11:16:38;101760.97;;;12.67;50.89
46690;BME280;32423;45.398;10.874;2024-01-25T11:19:35;101756.72;;;12.61;51.36
46690;BME280;32423;45.398;10.874;2024-01-25T11:22:36;101751.47;;;12.51;50.77
46690;BME280;32423;45.398;10.874;2024-01-25T11:25:28;101762.78;;;12.85;49.77
46690;BME280;32423;45.398;10.874;2024-01-25T11:28:20;101770.47;;;12.97;49.40
46690;BME280;32423;45.398;10.874;2024-01-25T11:31:13;101764.19;;;13.24;48.90
46690;BME280;32423;45.398;10.874;2024-01-25T11:34:09;101764.56;;;13.31;48.50
46690;BME280;32423;45.398;10.874;2024-01-25T11:37:05;101763.78;;;13.31;49.07
46690;BME280;32423;45.398;10.874;2024-01-25T11:40:04;101762.22;;;13.38;48.14
46690;BME280;32423;45.398;10.874;2024-01-25T11:42:59;101765.22;;;13.14;48.37
46690;BME280;32423;45.398;10.874;2024-01-25T11:45:54;101763.09;;;13.47;48.09
46690;BME280;32423;45.398;10.874;2024-01-25T11:48:48;101774.59;;;13.58;47.60
46690;BME280;32423;45.398;10.874;2024-01-25T11:51:43;101769.72;;;13.91;46.25
46690;BME280;32423;45.398;10.874;2024-01-25T11:54:37;101761.94;;;13.84;46.59
46690;BME280;32423;45.398;10.874;2024-01-25T11:57:33;101772.69;;;13.81;46.68
46690;BME280;32423;45.398;10.874;2024-01-25T12:00:26;101775.31;;;13.86;46.00
46690;BME280;32423;45.398;10.874;2024-01-25T12:03:18;101764.13;;;13.96;46.15
46690;BME280;32423;45.398;10.874;2024-01-25T12:06:14;101767.00;;;14.22;45.78
46690;BME280;32423;45.398;10.874;2024-01-25T12:09:12;101759.81;;;14.34;45.76
46690;BME280;32423;45.398;10.874;2024-01-25T12:12:11;101764.38;;;14.39;45.39
46690;BME280;32423;45.398;10.874;2024-01-25T12:15:07;101763.63;;;14.47;45.30
46690;BME280;32423;45.398;10.874;2024-01-25T12:18:04;101765.03;;;14.44;45.49
46690;BME280;32423;45.398;10.874;2024-01-25T12:20:57;101759.13;;;14.51;45.02
46690;BME280;32423;45.398;10.874;2024-01-25T12:23:53;101760.25;;;14.28;46.14
46690;BME280;32423;45.398;10.874;2024-01-25T12:26:48;101755.44;;;14.55;45.26
46690;BME280;32423;45.398;10.874;2024-01-25T12:29:40;101762.25;;;14.75;45.30
46690;BME280;32423;45.398;10.874;2024-01-25T12:32:32;101751.63;;;14.74;44.63
46690;BME280;32423;45.398;10.874;2024-01-25T12:35:27;101750.75;;;14.47;44.80
46690;BME280;32423;45.398;10.874;2024-01-25T12:38:26;101750.13;;;14.59;44.74
46690;BME280;32423;45.398;10.874;2024-01-25T12:41:21;101752.63;;;14.95;43.85
46690;BME280;32423;45.398;10.874;2024-01-25T12:44:15;101746.19;;;14.91;44.28
46690;BME280;32423;45.398;10.874;2024-01-25T12:47:10;101745.72;;;14.97;44.00
46690;BME280;32423;45.398;10.874;2024-01-25T12:50:22;101743.16;;;15.01;43.62
46690;BME280;32423;45.398;10.874;2024-01-25T12:53:17;101751.50;;;14.87;44.57
46690;BME280;32423;45.398;10.874;2024-01-25T12:56:12;101743.00;;;15.06;43.75
46690;BME280;32423;45.398;10.874;2024-01-25T12:59:06;101737.00;;;14.95;43.79
46690;BME280;32423;45.398;10.874;2024-01-25T13:02:01;101735.84;;;14.71;43.68
46690;BME280;32423;45.398;10.874;2024-01-25T13:04:55;101728.78;;;14.95;43.17
46690;BME280;32423;45.398;10.874;2024-01-25T13:07:47;101720.13;;;15.02;43.66
46690;BME280;32423;45.398;10.874;2024-01-25T13:10:37;101724.31;;;15.25;43.29
46690;BME280;32423;45.398;10.874;2024-01-25T13:13:29;101726.38;;;14.85;43.74
46690;BME280;32423;45.398;10.874;2024-01-25T13:16:24;101730.59;;;15.34;42.41
46690;BME280;32423;45.398;10.874;2024-01-25T13:19:19;101717.53;;;15.14;42.50
46690;BME280;32423;45.398;10.874;2024-01-25T13:22:13;101716.72;;;14.96;43.35
46690;BME280;32423;45.398;10.874;2024-01-25T13:25:08;101719.31;;;15.10;43.08
46690;BME280;32423;45.398;10.874;2024-01-25T13:28:02;101723.19;;;15.18;42.93
46690;BME280;32423;45.398;10.874;2024-01-25T13:30:57;101716.91;;;15.26;42.48
46690;BME280;32423;45.398;10.874;2024-01-25T13:33:51;101719.16;;;15.32;42.02
46690;BME280;32423;45.398;10.874;2024-01-25T13:36:44;101704.00;;;15.18;42.02
46690;BME280;32423;45.398;10.874;2024-01-25T13:39:36;101708.34;;;15.10;42.64
46690;BME280;32423;45.398;10.874;2024-01-25T13:42:28;101710.78;;;15.03;43.06
46690;BME280;32423;45.398;10.874;2024-01-25T13:45:23;101708.34;;;15.10;42.51
46690;BME280;32423;45.398;10.874;2024-01-25T13:48:15;101721.56;;;15.17;42.55
46690;BME280;32423;45.398;10.874;2024-01-25T13:51:04;101723.69;;;15.28;43.23
46690;BME280;32423;45.398;10.874;2024-01-25T13:54:00;101732.19;;;15.10;42.98
46690;BME280;32423;45.398;10.874;2024-01-25T13:56:52;101731.56;;;15.21;43.08
46690;BME280;32423;45.398;10.874;2024-01-25T13:59:46;101725.13;;;15.17;43.13
46690;BME280;32423;45.398;10.874;2024-01-25T14:02:40;101726.09;;;15.13;43.49
46690;BME280;32423;45.398;10.874;2024-01-25T14:05:36;101722.53;;;15.29;42.96
46690;BME280;32423;45.398;10.874;2024-01-25T14:08:31;101727.22;;;15.37;42.72
46690;BME280;32423;45.398;10.874;2024-01-25T14:11:23;101725.66;;;15.54;42.30
46690;BME280;32423;45.398;10.874;2024-01-25T14:14:16;101725.28;;;15.47;42.76
46690;BME280;32423;45.398;10.874;2024-01-25T14:17:07;101716.25;;;15.46;42.65
46690;BME280;32423;45.398;10.874;2024-01-25T14:20:02;101715.78;;;15.35;43.25
46690;BME280;32423;45.398;10.874;2024-01-25T14:22:54;101718.34;;;15.15;43.38
46690;BME280;32423;45.398;10.874;2024-01-25T14:25:49;101709.63;;;15.04;43.98
46690;BME280;32423;45.398;10.874;2024-01-25T14:28:43;101712.06;;;15.14;44.14
46690;BME280;32423;45.398;10.874;2024-01-25T14:31:38;101708.66;;;14.91;45.68
46690;BME280;32423;45.398;10.874;2024-01-25T14:34:32;101719.28;;;14.84;45.54
46690;BME280;32423;45.398;10.874;2024-01-25T14:37:27;101720.38;;;14.75;45.97
46690;BME280;32423;45.398;10.874;2024-01-25T14:40:22;101721.31;;;14.62;46.50
46690;BME280;32423;45.398;10.874;2024-01-25T14:43:16;101708.28;;;14.67;46.45
46690;BME280;32423;45.398;10.874;2024-01-25T14:46:09;101716.00;;;14.57;46.78
46690;BME280;32423;45.398;10.874;2024-01-25T14:49:02;101718.53;;;14.53;46.87
46690;BME280;32423;45.398;10.874;2024-01-25T14:51:54;101714.28;;;14.78;46.50
46690;BME280;32423;45.398;10.874;2024-01-25T14:54:48;101721.34;;;14.79;46.39
46690;BME280;32423;45.398;10.874;2024-01-25T14:57:43;101727.75;;;14.66;46.65
46690;BME280;32423;45.398;10.874;2024-01-25T15:00:38;101727.63;;;14.71;46.67
46690;BME280;32423;45.398;10.874;2024-01-25T15:03:32;101723.38;;;14.47;46.89
46690;BME280;32423;45.398;10.874;2024-01-25T15:06:27;101729.31;;;14.19;47.60
46690;BME280;32423;45.398;10.874;2024-01-25T15:09:21;101723.31;;;14.08;48.18